sensor_id;sensor_type;location;lat;lon;timestamp;P1;durP1;ratioP1;P2;durP2;ratioP2
9420;SDS011;4749;51.398;5.466;2023-03-23T00:00:08;6.07;;;2.53;;
9420;SDS011;4749;51.398;5.466;2023-03-23T00:02:35;2.45;;;2.00;;
9420;SDS011;4749;51.398;5.466;2023-03-23T00:05:03;5.50;;;2.45;;
9420;SDS011;4749;51.398;5.466;2023-03-23T00:07:32;3.75;;;2.25;;
9420;SDS011;4749;51.398;5.466;2023-03-23T00:10:00;4.03;;;2.50;;
9420;SDS011;4749;51.398;5.466;2023-03-23T00:12:28;4.13;;;2.38;;
9420;SDS011;4749;51.398;5.466;2023-03-23T00:15:00;4.28;;;2.15;;
9420;SDS011;4749;51.398;5.466;2023-03-23T00:17:28;3.17;;;2.30;;
9420;SDS011;4749;51.398;5.466;2023-03-23T00:19:55;4.00;;;2.10;;
9420;SDS011;4749;51.398;5.466;2023-03-23T00:22:21;5.85;;;2.97;;
9420;SDS011;4749;51.398;5.466;2023-03-23T00:24:50;4.75;;;2.40;;
9420;SDS011;4749;51.398;5.466;2023-03-23T00:27:17;2.95;;;2.15;;
9420;SDS011;4749;51.398;5.466;2023-03-23T00:29:44;4.80;;;2.17;;
9420;SDS011;4749;51.398;5.466;2023-03-23T00:32:13;2.67;;;2.10;;
9420;SDS011;4749;51.398;5.466;2023-03-23T00:34:39;3.55;;;2.20;;
9420;SDS011;4749;51.398;5.466;2023-03-23T00:37:08;3.67;;;2.08;;
9420;SDS011;4749;51.398;5.466;2023-03-23T00:39:35;4.35;;;2.15;;
9420;SDS011;4749;51.398;5.466;2023-03-23T00:42:03;4.50;;;2.28;;
9420;SDS011;4749;51.398;5.466;2023-03-23T00:44:31;3.00;;;2.35;;
9420;SDS011;4749;51.398;5.466;2023-03-23T00:47:00;3.22;;;2.38;;
9420;SDS011;4749;51.398;5.466;2023-03-23T00:49:27;4.05;;;2.20;;
9420;SDS011;4749;51.398;5.466;2023-03-23T00:51:57;4.97;;;2.20;;
9420;SDS011;4749;51.398;5.466;2023-03-23T00:54:24;4.93;;;2.17;;
9420;SDS011;4749;51.398;5.466;2023-03-23T00:56:50;4.85;;;2.47;;
9420;SDS011;4749;51.398;5.466;2023-03-23T00:59:18;3.58;;;2.40;;
9420;SDS011;4749;51.398;5.466;2023-03-23T01:01:45;2.80;;;2.42;;
9420;SDS011;4749;51.398;5.466;2023-03-23T01:04:12;2.30;;;2.00;;
9420;SDS011;4749;51.398;5.466;2023-03-23T01:06:41;4.10;;;2.58;;
9420;SDS011;4749;51.398;5.466;2023-03-23T01:09:13;4.18;;;2.20;;
9420;SDS011;4749;51.398;5.466;2023-03-23T01:11:44;3.38;;;2.20;;
9420;SDS011;4749;51.398;5.466;2023-03-23T01:14:12;6.15;;;2.13;;
9420;SDS011;4749;51.398;5.466;2023-03-23T01:16:40;4.43;;;2.30;;
9420;SDS011;4749;51.398;5.466;2023-03-23T01:19:07;3.70;;;2.10;;
9420;SDS011;4749;51.398;5.466;2023-03-23T01:21:33;3.55;;;2.05;;
9420;SDS011;4749;51.398;5.466;2023-03-23T01:24:00;3.38;;;2.35;;
9420;SDS011;4749;51.398;5.466;2023-03-23T01:26:26;4.03;;;2.50;;
9420;SDS011;4749;51.398;5.466;2023-03-23T01:31:36;6.35;;;2.70;;
9420;SDS011;4749;51.398;5.466;2023-03-23T01:34:02;3.33;;;2.53;;
9420;SDS011;4749;51.398;5.466;2023-03-23T01:36:29;4.97;;;2.10;;
9420;SDS011;4749;51.398;5.466;2023-03-23T01:38:58;3.15;;;2.40;;
9420;SDS011;4749;51.398;5.466;2023-03-23T01:41:28;3.65;;;2.90;;
9420;SDS011;4749;51.398;5.466;2023-03-23T01:43:55;5.53;;;2.30;;
9420;SDS011;4749;51.398;5.466;2023-03-23T01:46:33;6.78;;;2.38;;
9420;SDS011;4749;51.398;5.466;2023-03-23T01:49:02;4.90;;;2.70;;
9420;SDS011;4749;51.398;5.466;2023-03-23T01:51:45;3.38;;;2.47;;
9420;SDS011;4749;51.398;5.466;2023-03-23T01:54:19;4.43;;;2.72;;
9420;SDS011;4749;51.398;5.466;2023-03-23T01:56:50;5.85;;;2.75;;
9420;SDS011;4749;51.398;5.466;2023-03-23T01:59:26;4.55;;;2.30;;
9420;SDS011;4749;51.398;5.466;2023-03-23T02:01:54;6.50;;;2.70;;
9420;SDS011;4749;51.398;5.466;2023-03-23T02:04:21;5.43;;;2.70;;
9420;SDS011;4749;51.398;5.466;2023-03-23T02:06:50;3.70;;;2.38;;
9420;SDS011;4749;51.398;5.466;2023-03-23T02:09:18;4.05;;;2.72;;
9420;SDS011;4749;51.398;5.466;2023-03-23T02:11:45;3.40;;;2.45;;
9420;SDS011;4749;51.398;5.466;2023-03-23T02:14:15;5.82;;;2.75;;
9420;SDS011;4749;51.398;5.466;2023-03-23T02:16:50;3.95;;;2.60;;
9420;SDS011;4749;51.398;5.466;2023-03-23T02:25:50;3.70;;;2.53;;
9420;SDS011;4749;51.398;5.466;2023-03-23T02:34:08;4.90;;;2.70;;
9420;SDS011;4749;51.398;5.466;2023-03-23T02:40:09;4.70;;;2.70;;
9420;SDS011;4749;51.398;5.466;2023-03-23T02:42:47;4.03;;;2.38;;
9420;SDS011;4749;51.398;5.466;2023-03-23T02:45:17;4.63;;;2.50;;
9420;SDS011;4749;51.398;5.466;2023-03-23T02:47:45;6.05;;;2.70;;
9420;SDS011;4749;51.398;5.466;2023-03-23T02:50:15;5.95;;;2.65;;
9420;SDS011;4749;51.398;5.466;2023-03-23T02:52:44;3.13;;;2.58;;
9420;SDS011;4749;51.398;5.466;2023-03-23T02:55:13;3.70;;;2.50;;
9420;SDS011;4749;51.398;5.466;2023-03-23T02:57:41;4.70;;;2.83;;
9420;SDS011;4749;51.398;5.466;2023-03-23T03:00:10;4.28;;;3.10;;
9420;SDS011;4749;51.398;5.466;2023-03-23T03:02:47;4.78;;;2.92;;
9420;SDS011;4749;51.398;5.466;2023-03-23T03:05:21;3.53;;;2.50;;
9420;SDS011;4749;51.398;5.466;2023-03-23T03:19:03;5.80;;;2.60;;
9420;SDS011;4749;51.398;5.466;2023-03-23T03:21:51;3.28;;;2.28;;
9420;SDS011;4749;51.398;5.466;2023-03-23T03:24:20;3.28;;;2.70;;
9420;SDS011;4749;51.398;5.466;2023-03-23T03:26:50;3.25;;;2.50;;
9420;SDS011;4749;51.398;5.466;2023-03-23T03:29:23;5.60;;;2.35;;
9420;SDS011;4749;51.398;5.466;2023-03-23T03:31:56;4.88;;;2.30;;
9420;SDS011;4749;51.398;5.466;2023-03-23T03:34:25;3.60;;;2.47;;
9420;SDS011;4749;51.398;5.466;2023-03-23T03:36:52;4.30;;;2.60;;
9420;SDS011;4749;51.398;5.466;2023-03-23T03:39:24;3.85;;;2.75;;
9420;SDS011;4749;51.398;5.466;2023-03-23T03:41:51;3.35;;;2.42;;
9420;SDS011;4749;51.398;5.466;2023-03-23T03:44:17;3.55;;;2.25;;
9420;SDS011;4749;51.398;5.466;2023-03-23T03:46:43;3.50;;;2.50;;
9420;SDS011;4749;51.398;5.466;2023-03-23T03:49:10;3.67;;;2.17;;
9420;SDS011;4749;51.398;5.466;2023-03-23T03:51:37;5.53;;;2.30;;
9420;SDS011;4749;51.398;5.466;2023-03-23T03:54:04;5.32;;;2.05;;
9420;SDS011;4749;51.398;5.466;2023-03-23T03:56:30;3.47;;;2.05;;
9420;SDS011;4749;51.398;5.466;2023-03-23T03:59:05;4.78;;;2.35;;
9420;SDS011;4749;51.398;5.466;2023-03-23T04:01:33;5.13;;;1.85;;
9420;SDS011;4749;51.398;5.466;2023-03-23T04:03:59;1.98;;;1.70;;
9420;SDS011;4749;51.398;5.466;2023-03-23T04:06:25;2.80;;;1.55;;
9420;SDS011;4749;51.398;5.466;2023-03-23T04:08:56;7.05;;;1.85;;
9420;SDS011;4749;51.398;5.466;2023-03-23T04:11:24;7.43;;;1.55;;
9420;SDS011;4749;51.398;5.466;2023-03-23T04:13:51;4.60;;;1.48;;
9420;SDS011;4749;51.398;5.466;2023-03-23T04:16:17;4.07;;;1.60;;
9420;SDS011;4749;51.398;5.466;2023-03-23T04:18:43;7.78;;;1.95;;
9420;SDS011;4749;51.398;5.466;2023-03-23T04:21:10;5.40;;;1.95;;
9420;SDS011;4749;51.398;5.466;2023-03-23T04:23:36;4.72;;;1.60;;
9420;SDS011;4749;51.398;5.466;2023-03-23T04:26:03;5.10;;;1.90;;
9420;SDS011;4749;51.398;5.466;2023-03-23T04:28:29;3.25;;;1.38;;
9420;SDS011;4749;51.398;5.466;2023-03-23T04:30:59;3.55;;;1.50;;
9420;SDS011;4749;51.398;5.466;2023-03-23T04:33:29;2.88;;;1.40;;
9420;SDS011;4749;51.398;5.466;2023-03-23T04:35:56;7.72;;;2.15;;
9420;SDS011;4749;51.398;5.466;2023-03-23T04:38:26;4.43;;;1.52;;
9420;SDS011;4749;51.398;5.466;2023-03-23T04:40:54;3.17;;;1.30;;
9420;SDS011;4749;51.398;5.466;2023-03-23T04:43:22;4.45;;;2.08;;
9420;SDS011;4749;51.398;5.466;2023-03-23T04:45:53;6.13;;;1.52;;
9420;SDS011;4749;51.398;5.466;2023-03-23T04:48:27;4.32;;;1.55;;
9420;SDS011;4749;51.398;5.466;2023-03-23T04:50:55;3.63;;;1.45;;
9420;SDS011;4749;51.398;5.466;2023-03-23T04:53:22;6.90;;;1.67;;
9420;SDS011;4749;51.398;5.466;2023-03-23T04:55:48;5.82;;;1.95;;
9420;SDS011;4749;51.398;5.466;2023-03-23T04:58:14;6.85;;;1.90;;
9420;SDS011;4749;51.398;5.466;2023-03-23T05:00:42;4.80;;;1.50;;
9420;SDS011;4749;51.398;5.466;2023-03-23T05:03:11;6.38;;;1.73;;
9420;SDS011;4749;51.398;5.466;2023-03-23T05:05:41;3.47;;;1.50;;
9420;SDS011;4749;51.398;5.466;2023-03-23T05:08:12;4.03;;;1.50;;
9420;SDS011;4749;51.398;5.466;2023-03-23T05:10:39;5.25;;;2.05;;
9420;SDS011;4749;51.398;5.466;2023-03-23T05:13:05;4.35;;;2.10;;
9420;SDS011;4749;51.398;5.466;2023-03-23T05:15:31;3.15;;;1.42;;
9420;SDS011;4749;51.398;5.466;2023-03-23T05:17:57;2.63;;;1.40;;
9420;SDS011;4749;51.398;5.466;2023-03-23T05:20:23;6.63;;;2.17;;
9420;SDS011;4749;51.398;5.466;2023-03-23T05:22:50;5.13;;;1.50;;
9420;SDS011;4749;51.398;5.466;2023-03-23T05:25:17;4.97;;;1.83;;
9420;SDS011;4749;51.398;5.466;2023-03-23T05:27:47;5.32;;;1.67;;
9420;SDS011;4749;51.398;5.466;2023-03-23T05:30:18;6.93;;;2.25;;
9420;SDS011;4749;51.398;5.466;2023-03-23T05:32:47;3.50;;;1.58;;
9420;SDS011;4749;51.398;5.466;2023-03-23T05:35:17;3.88;;;1.90;;
9420;SDS011;4749;51.398;5.466;2023-03-23T05:37:45;4.68;;;2.00;;
9420;SDS011;4749;51.398;5.466;2023-03-23T05:40:11;4.75;;;1.88;;
9420;SDS011;4749;51.398;5.466;2023-03-23T05:42:39;3.17;;;1.70;;
9420;SDS011;4749;51.398;5.466;2023-03-23T05:45:10;4.22;;;1.65;;
9420;SDS011;4749;51.398;5.466;2023-03-23T05:47:40;6.38;;;1.77;;
9420;SDS011;4749;51.398;5.466;2023-03-23T05:50:07;4.10;;;2.08;;
9420;SDS011;4749;51.398;5.466;2023-03-23T05:52:35;5.95;;;1.80;;
9420;SDS011;4749;51.398;5.466;2023-03-23T05:55:01;5.60;;;2.03;;
9420;SDS011;4749;51.398;5.466;2023-03-23T05:57:28;6.47;;;2.08;;
9420;SDS011;4749;51.398;5.466;2023-03-23T05:59:55;4.45;;;1.90;;
9420;SDS011;4749;51.398;5.466;2023-03-23T06:02:23;5.35;;;1.90;;
9420;SDS011;4749;51.398;5.466;2023-03-23T06:04:52;5.57;;;1.85;;
9420;SDS011;4749;51.398;5.466;2023-03-23T06:07:25;4.45;;;1.80;;
9420;SDS011;4749;51.398;5.466;2023-03-23T06:09:52;3.67;;;1.70;;
9420;SDS011;4749;51.398;5.466;2023-03-23T06:12:18;5.20;;;1.92;;
9420;SDS011;4749;51.398;5.466;2023-03-23T06:14:45;3.85;;;1.42;;
9420;SDS011;4749;51.398;5.466;2023-03-23T06:17:15;7.60;;;2.08;;
9420;SDS011;4749;51.398;5.466;2023-03-23T06:19:45;7.30;;;1.60;;
9420;SDS011;4749;51.398;5.466;2023-03-23T06:22:12;6.65;;;1.70;;
9420;SDS011;4749;51.398;5.466;2023-03-23T06:24:38;4.07;;;1.83;;
9420;SDS011;4749;51.398;5.466;2023-03-23T06:27:04;4.90;;;1.50;;
9420;SDS011;4749;51.398;5.466;2023-03-23T06:29:30;5.70;;;1.58;;
9420;SDS011;4749;51.398;5.466;2023-03-23T06:31:58;10.75;;;2.45;;
9420;SDS011;4749;51.398;5.466;2023-03-23T06:34:28;4.05;;;1.50;;
9420;SDS011;4749;51.398;5.466;2023-03-23T06:36:55;6.57;;;1.80;;
9420;SDS011;4749;51.398;5.466;2023-03-23T06:39:21;5.18;;;1.80;;
9420;SDS011;4749;51.398;5.466;2023-03-23T06:41:48;4.63;;;1.50;;
9420;SDS011;4749;51.398;5.466;2023-03-23T06:44:14;3.97;;;1.33;;
9420;SDS011;4749;51.398;5.466;2023-03-23T06:46:41;2.58;;;1.40;;
9420;SDS011;4749;51.398;5.466;2023-03-23T06:49:07;6.03;;;1.88;;
9420;SDS011;4749;51.398;5.466;2023-03-23T06:51:34;4.78;;;1.75;;
9420;SDS011;4749;51.398;5.466;2023-03-23T06:54:00;5.63;;;1.67;;
9420;SDS011;4749;51.398;5.466;2023-03-23T06:56:26;3.95;;;1.40;;
9420;SDS011;4749;51.398;5.466;2023-03-23T06:58:52;4.05;;;1.52;;
9420;SDS011;4749;51.398;5.466;2023-03-23T07:01:18;7.15;;;1.50;;
9420;SDS011;4749;51.398;5.466;2023-03-23T07:03:45;4.45;;;1.33;;
9420;SDS011;4749;51.398;5.466;2023-03-23T07:06:11;2.85;;;1.30;;
9420;SDS011;4749;51.398;5.466;2023-03-23T07:08:37;5.68;;;1.40;;
9420;SDS011;4749;51.398;5.466;2023-03-23T07:11:03;5.75;;;1.38;;
9420;SDS011;4749;51.398;5.466;2023-03-23T07:13:30;3.30;;;1.60;;
9420;SDS011;4749;51.398;5.466;2023-03-23T07:15:56;6.95;;;1.95;;
9420;SDS011;4749;51.398;5.466;2023-03-23T07:18:23;6.68;;;2.22;;
9420;SDS011;4749;51.398;5.466;2023-03-23T07:20:50;4.85;;;1.88;;
9420;SDS011;4749;51.398;5.466;2023-03-23T07:23:17;7.13;;;1.98;;
9420;SDS011;4749;51.398;5.466;2023-03-23T07:25:44;5.28;;;1.95;;
9420;SDS011;4749;51.398;5.466;2023-03-23T07:28:13;6.30;;;2.10;;
9420;SDS011;4749;51.398;5.466;2023-03-23T07:30:41;8.55;;;2.28;;
9420;SDS011;4749;51.398;5.466;2023-03-23T07:33:07;5.40;;;1.70;;
9420;SDS011;4749;51.398;5.466;2023-03-23T07:35:34;6.45;;;1.55;;
9420;SDS011;4749;51.398;5.466;2023-03-23T07:38:01;7.70;;;2.17;;
9420;SDS011;4749;51.398;5.466;2023-03-23T07:40:29;5.57;;;2.00;;
9420;SDS011;4749;51.398;5.466;2023-03-23T07:42:58;8.35;;;2.03;;
9420;SDS011;4749;51.398;5.466;2023-03-23T07:45:25;6.40;;;1.80;;
9420;SDS011;4749;51.398;5.466;2023-03-23T07:47:51;5.53;;;1.90;;
9420;SDS011;4749;51.398;5.466;2023-03-23T07:50:18;4.90;;;1.20;;
9420;SDS011;4749;51.398;5.466;2023-03-23T07:52:47;3.85;;;1.30;;
9420;SDS011;4749;51.398;5.466;2023-03-23T07:55:13;2.65;;;1.00;;
9420;SDS011;4749;51.398;5.466;2023-03-23T07:57:49;2.63;;;0.80;;
9420;SDS011;4749;51.398;5.466;2023-03-23T08:00:15;2.95;;;0.70;;
9420;SDS011;4749;51.398;5.466;2023-03-23T08:02:49;2.05;;;1.00;;
9420;SDS011;4749;51.398;5.466;2023-03-23T08:05:18;2.17;;;0.77;;
9420;SDS011;4749;51.398;5.466;2023-03-23T08:07:47;3.35;;;1.00;;
9420;SDS011;4749;51.398;5.466;2023-03-23T08:10:15;2.63;;;1.17;;
9420;SDS011;4749;51.398;5.466;2023-03-23T08:12:43;1.92;;;0.80;;
9420;SDS011;4749;51.398;5.466;2023-03-23T08:15:11;2.50;;;0.93;;
9420;SDS011;4749;51.398;5.466;2023-03-23T08:17:39;6.72;;;1.30;;
9420;SDS011;4749;51.398;5.466;2023-03-23T08:20:07;2.55;;;1.00;;
9420;SDS011;4749;51.398;5.466;2023-03-23T08:22:39;2.92;;;0.80;;
9420;SDS011;4749;51.398;5.466;2023-03-23T08:25:07;3.97;;;1.00;;
9420;SDS011;4749;51.398;5.466;2023-03-23T08:27:35;1.80;;;1.02;;
9420;SDS011;4749;51.398;5.466;2023-03-23T08:30:03;1.80;;;0.90;;
9420;SDS011;4749;51.398;5.466;2023-03-23T08:32:30;1.85;;;0.90;;
9420;SDS011;4749;51.398;5.466;2023-03-23T08:34:56;3.58;;;1.00;;
9420;SDS011;4749;51.398;5.466;2023-03-23T08:37:23;2.05;;;0.82;;
9420;SDS011;4749;51.398;5.466;2023-03-23T08:39:50;4.25;;;0.85;;
9420;SDS011;4749;51.398;5.466;2023-03-23T08:42:18;2.33;;;0.98;;
9420;SDS011;4749;51.398;5.466;2023-03-23T08:44:44;4.47;;;1.08;;
9420;SDS011;4749;51.398;5.466;2023-03-23T08:47:10;2.00;;;1.05;;
9420;SDS011;4749;51.398;5.466;2023-03-23T08:49:36;1.60;;;0.70;;
9420;SDS011;4749;51.398;5.466;2023-03-23T08:52:02;2.05;;;0.70;;
9420;SDS011;4749;51.398;5.466;2023-03-23T08:54:29;2.15;;;0.80;;
9420;SDS011;4749;51.398;5.466;2023-03-23T08:57:01;2.85;;;1.08;;
9420;SDS011;4749;51.398;5.466;2023-03-23T08:59:28;1.63;;;0.70;;
9420;SDS011;4749;51.398;5.466;2023-03-23T09:01:54;2.30;;;0.65;;
9420;SDS011;4749;51.398;5.466;2023-03-23T09:04:20;3.83;;;1.20;;
9420;SDS011;4749;51.398;5.466;2023-03-23T09:06:46;2.65;;;0.82;;
9420;SDS011;4749;51.398;5.466;2023-03-23T09:09:12;1.60;;;0.70;;
9420;SDS011;4749;51.398;5.466;2023-03-23T09:11:39;1.73;;;0.70;;
9420;SDS011;4749;51.398;5.466;2023-03-23T09:14:06;2.50;;;0.80;;
9420;SDS011;4749;51.398;5.466;2023-03-23T09:16:33;3.47;;;0.90;;
9420;SDS011;4749;51.398;5.466;2023-03-23T09:18:59;1.83;;;0.80;;
9420;SDS011;4749;51.398;5.466;2023-03-23T09:21:26;2.03;;;0.90;;
9420;SDS011;4749;51.398;5.466;2023-03-23T09:23:54;5.07;;;0.90;;
9420;SDS011;4749;51.398;5.466;2023-03-23T09:26:24;3.35;;;0.80;;
9420;SDS011;4749;51.398;5.466;2023-03-23T09:28:53;5.85;;;1.45;;
9420;SDS011;4749;51.398;5.466;2023-03-23T09:31:21;2.92;;;1.08;;
9420;SDS011;4749;51.398;5.466;2023-03-23T09:33:49;1.75;;;0.70;;
9420;SDS011;4749;51.398;5.466;2023-03-23T09:36:18;1.55;;;0.98;;
9420;SDS011;4749;51.398;5.466;2023-03-23T09:38:46;4.22;;;1.23;;
9420;SDS011;4749;51.398;5.466;2023-03-23T09:46:52;3.50;;;1.10;;
9420;SDS011;4749;51.398;5.466;2023-03-23T09:49:34;3.65;;;0.90;;
9420;SDS011;4749;51.398;5.466;2023-03-23T09:52:13;2.13;;;0.90;;
9420;SDS011;4749;51.398;5.466;2023-03-23T09:54:48;0.98;;;0.73;;
9420;SDS011;4749;51.398;5.466;2023-03-23T10:05:51;1.67;;;0.80;;
9420;SDS011;4749;51.398;5.466;2023-03-23T10:08:20;2.78;;;0.95;;
9420;SDS011;4749;51.398;5.466;2023-03-23T10:14:12;3.40;;;1.10;;
9420;SDS011;4749;51.398;5.466;2023-03-23T10:22:52;2.67;;;1.02;;
9420;SDS011;4749;51.398;5.466;2023-03-23T10:25:43;3.28;;;1.20;;
9420;SDS011;4749;51.398;5.466;2023-03-23T10:28:33;3.08;;;1.08;;
9420;SDS011;4749;51.398;5.466;2023-03-23T10:31:08;4.55;;;1.45;;
9420;SDS011;4749;51.398;5.466;2023-03-23T10:33:48;3.33;;;0.93;;
9420;SDS011;4749;51.398;5.466;2023-03-23T10:39:14;2.45;;;1.15;;
9420;SDS011;4749;51.398;5.466;2023-03-23T10:41:46;3.70;;;1.25;;
9420;SDS011;4749;51.398;5.466;2023-03-23T10:44:17;4.75;;;1.20;;
9420;SDS011;4749;51.398;5.466;2023-03-23T10:47:03;6.80;;;1.40;;
9420;SDS011;4749;51.398;5.466;2023-03-23T10:49:34;3.00;;;1.10;;
9420;SDS011;4749;51.398;5.466;2023-03-23T10:57:35;2.28;;;0.88;;
9420;SDS011;4749;51.398;5.466;2023-03-23T11:00:15;2.08;;;0.77;;
9420;SDS011;4749;51.398;5.466;2023-03-23T11:02:47;2.85;;;1.00;;
9420;SDS011;4749;51.398;5.466;2023-03-23T11:06:08;2.10;;;1.00;;
9420;SDS011;4749;51.398;5.466;2023-03-23T11:08:49;1.73;;;0.85;;
9420;SDS011;4749;51.398;5.466;2023-03-23T11:11:30;2.90;;;1.23;;
9420;SDS011;4749;51.398;5.466;2023-03-23T11:14:11;4.50;;;1.10;;
9420;SDS011;4749;51.398;5.466;2023-03-23T11:16:45;1.92;;;0.80;;
9420;SDS011;4749;51.398;5.466;2023-03-23T11:19:24;2.80;;;1.20;;
9420;SDS011;4749;51.398;5.466;2023-03-23T11:24:33;2.53;;;0.93;;
9420;SDS011;4749;51.398;5.466;2023-03-23T11:27:06;1.77;;;0.80;;
9420;SDS011;4749;51.398;5.466;2023-03-23T11:29:34;4.22;;;1.42;;
9420;SDS011;4749;51.398;5.466;2023-03-23T11:32:14;3.30;;;0.80;;
9420;SDS011;4749;51.398;5.466;2023-03-23T11:34:46;3.15;;;0.88;;
9420;SDS011;4749;51.398;5.466;2023-03-23T11:45:34;4.05;;;1.08;;
9420;SDS011;4749;51.398;5.466;2023-03-23T11:56:53;4.07;;;1.10;;
9420;SDS011;4749;51.398;5.466;2023-03-23T11:59:31;4.28;;;1.23;;
9420;SDS011;4749;51.398;5.466;2023-03-23T12:10:59;3.70;;;1.20;;
9420;SDS011;4749;51.398;5.466;2023-03-23T12:17:00;4.50;;;1.65;;
9420;SDS011;4749;51.398;5.466;2023-03-23T12:31:32;3.33;;;1.08;;
9420;SDS011;4749;51.398;5.466;2023-03-23T12:39:53;4.13;;;1.30;;
9420;SDS011;4749;51.398;5.466;2023-03-23T12:43:20;3.42;;;1.42;;
9420;SDS011;4749;51.398;5.466;2023-03-23T12:52:06;5.70;;;1.35;;
9420;SDS011;4749;51.398;5.466;2023-03-23T12:55:47;2.75;;;1.40;;
9420;SDS011;4749;51.398;5.466;2023-03-23T12:58:31;5.00;;;1.40;;
9420;SDS011;4749;51.398;5.466;2023-03-23T13:01:17;3.80;;;1.40;;
9420;SDS011;4749;51.398;5.466;2023-03-23T13:03:49;5.05;;;1.55;;
9420;SDS011;4749;51.398;5.466;2023-03-23T13:11:39;6.72;;;1.70;;
9420;SDS011;4749;51.398;5.466;2023-03-23T13:26:00;6.43;;;1.25;;
9420;SDS011;4749;51.398;5.466;2023-03-23T13:31:40;2.97;;;1.10;;
9420;SDS011;4749;51.398;5.466;2023-03-23T13:34:18;5.03;;;1.67;;
9420;SDS011;4749;51.398;5.466;2023-03-23T13:36:57;4.80;;;1.92;;
9420;SDS011;4749;51.398;5.466;2023-03-23T13:39:37;4.35;;;1.50;;
9420;SDS011;4749;51.398;5.466;2023-03-23T13:42:30;5.45;;;2.03;;
9420;SDS011;4749;51.398;5.466;2023-03-23T13:45:20;8.82;;;2.03;;
9420;SDS011;4749;51.398;5.466;2023-03-23T13:47:49;6.25;;;2.75;;
9420;SDS011;4749;51.398;5.466;2023-03-23T13:50:28;4.43;;;1.98;;
9420;SDS011;4749;51.398;5.466;2023-03-23T13:53:12;5.78;;;2.20;;
9420;SDS011;4749;51.398;5.466;2023-03-23T13:55:41;8.55;;;2.67;;
9420;SDS011;4749;51.398;5.466;2023-03-23T13:58:21;5.60;;;1.75;;
9420;SDS011;4749;51.398;5.466;2023-03-23T14:01:10;4.05;;;1.75;;
9420;SDS011;4749;51.398;5.466;2023-03-23T14:03:47;5.28;;;2.10;;
9420;SDS011;4749;51.398;5.466;2023-03-23T14:06:19;6.68;;;1.83;;
9420;SDS011;4749;51.398;5.466;2023-03-23T14:08:50;3.95;;;1.70;;
9420;SDS011;4749;51.398;5.466;2023-03-23T14:16:43;6.63;;;1.52;;
9420;SDS011;4749;51.398;5.466;2023-03-23T14:19:23;4.10;;;1.40;;
9420;SDS011;4749;51.398;5.466;2023-03-23T14:21:57;3.70;;;1.25;;
9420;SDS011;4749;51.398;5.466;2023-03-23T14:29:33;3.17;;;1.40;;
9420;SDS011;4749;51.398;5.466;2023-03-23T14:31:59;3.35;;;1.08;;
9420;SDS011;4749;51.398;5.466;2023-03-23T14:34:27;5.72;;;2.47;;
9420;SDS011;4749;51.398;5.466;2023-03-23T14:36:56;3.25;;;1.77;;
9420;SDS011;4749;51.398;5.466;2023-03-23T14:39:24;6.95;;;1.75;;
9420;SDS011;4749;51.398;5.466;2023-03-23T14:42:03;4.55;;;1.73;;
9420;SDS011;4749;51.398;5.466;2023-03-23T14:44:39;7.60;;;2.03;;
9420;SDS011;4749;51.398;5.466;2023-03-23T14:47:27;6.78;;;2.08;;
9420;SDS011;4749;51.398;5.466;2023-03-23T14:50:06;7.25;;;2.08;;
9420;SDS011;4749;51.398;5.466;2023-03-23T14:53:07;5.40;;;2.13;;
9420;SDS011;4749;51.398;5.466;2023-03-23T14:56:00;7.75;;;2.47;;
9420;SDS011;4749;51.398;5.466;2023-03-23T14:58:32;6.28;;;2.13;;
9420;SDS011;4749;51.398;5.466;2023-03-23T15:03:34;4.55;;;1.77;;
9420;SDS011;4749;51.398;5.466;2023-03-23T15:06:09;6.07;;;1.80;;
9420;SDS011;4749;51.398;5.466;2023-03-23T15:08:44;4.88;;;1.90;;
9420;SDS011;4749;51.398;5.466;2023-03-23T15:13:45;4.80;;;1.90;;
9420;SDS011;4749;51.398;5.466;2023-03-23T15:18:56;5.18;;;2.20;;
9420;SDS011;4749;51.398;5.466;2023-03-23T15:21:32;7.47;;;1.65;;
9420;SDS011;4749;51.398;5.466;2023-03-23T15:24:27;7.20;;;1.77;;
9420;SDS011;4749;51.398;5.466;2023-03-23T15:32:23;7.30;;;1.83;;
9420;SDS011;4749;51.398;5.466;2023-03-23T15:35:04;6.40;;;2.03;;
9420;SDS011;4749;51.398;5.466;2023-03-23T15:37:42;7.15;;;2.78;;
9420;SDS011;4749;51.398;5.466;2023-03-23T15:40:19;4.80;;;1.95;;
9420;SDS011;4749;51.398;5.466;2023-03-23T15:42:48;7.32;;;2.20;;
9420;SDS011;4749;51.398;5.466;2023-03-23T15:45:30;5.63;;;1.77;;
9420;SDS011;4749;51.398;5.466;2023-03-23T15:47:57;6.10;;;2.55;;
9420;SDS011;4749;51.398;5.466;2023-03-23T15:50:36;7.25;;;2.08;;
9420;SDS011;4749;51.398;5.466;2023-03-23T15:53:47;8.13;;;2.10;;
9420;SDS011;4749;51.398;5.466;2023-03-23T15:56:03;5.38;;;1.70;;
9420;SDS011;4749;51.398;5.466;2023-03-23T15:58:31;6.47;;;2.10;;
9420;SDS011;4749;51.398;5.466;2023-03-23T16:01:01;6.70;;;1.88;;
9420;SDS011;4749;51.398;5.466;2023-03-23T16:03:38;5.95;;;2.10;;
9420;SDS011;4749;51.398;5.466;2023-03-23T16:06:25;5.43;;;1.50;;
9420;SDS011;4749;51.398;5.466;2023-03-23T16:08:55;7.00;;;2.00;;
9420;SDS011;4749;51.398;5.466;2023-03-23T16:11:24;3.80;;;1.60;;
9420;SDS011;4749;51.398;5.466;2023-03-23T16:13:54;7.57;;;2.30;;
9420;SDS011;4749;51.398;5.466;2023-03-23T16:16:26;3.47;;;1.75;;
9420;SDS011;4749;51.398;5.466;2023-03-23T16:18:59;5.90;;;1.55;;
9420;SDS011;4749;51.398;5.466;2023-03-23T16:21:26;6.03;;;2.15;;
9420;SDS011;4749;51.398;5.466;2023-03-23T16:23:53;4.88;;;1.98;;
9420;SDS011;4749;51.398;5.466;2023-03-23T16:26:21;6.80;;;2.15;;
9420;SDS011;4749;51.398;5.466;2023-03-23T16:28:49;6.65;;;1.95;;
9420;SDS011;4749;51.398;5.466;2023-03-23T16:31:20;5.65;;;1.85;;
9420;SDS011;4749;51.398;5.466;2023-03-23T16:33:47;5.85;;;2.10;;
9420;SDS011;4749;51.398;5.466;2023-03-23T16:36:14;7.03;;;2.22;;
9420;SDS011;4749;51.398;5.466;2023-03-23T16:38:42;6.75;;;2.28;;
9420;SDS011;4749;51.398;5.466;2023-03-23T16:41:15;6.45;;;1.95;;
9420;SDS011;4749;51.398;5.466;2023-03-23T16:43:42;7.22;;;2.40;;
9420;SDS011;4749;51.398;5.466;2023-03-23T16:46:10;4.03;;;1.75;;
9420;SDS011;4749;51.398;5.466;2023-03-23T16:48:38;5.07;;;1.77;;
9420;SDS011;4749;51.398;5.466;2023-03-23T16:51:06;4.75;;;1.60;;
9420;SDS011;4749;51.398;5.466;2023-03-23T16:53:33;6.90;;;2.17;;
9420;SDS011;4749;51.398;5.466;2023-03-23T16:56:01;4.82;;;2.03;;
9420;SDS011;4749;51.398;5.466;2023-03-23T16:58:29;6.13;;;1.95;;
9420;SDS011;4749;51.398;5.466;2023-03-23T17:00:57;6.25;;;1.70;;
9420;SDS011;4749;51.398;5.466;2023-03-23T17:03:24;6.50;;;1.90;;
9420;SDS011;4749;51.398;5.466;2023-03-23T17:05:51;6.90;;;2.42;;
9420;SDS011;4749;51.398;5.466;2023-03-23T17:08:18;7.85;;;1.92;;
9420;SDS011;4749;51.398;5.466;2023-03-23T17:10:46;7.10;;;2.35;;
9420;SDS011;4749;51.398;5.466;2023-03-23T17:13:14;4.93;;;1.95;;
9420;SDS011;4749;51.398;5.466;2023-03-23T17:15:43;7.82;;;2.70;;
9420;SDS011;4749;51.398;5.466;2023-03-23T17:18:13;8.43;;;4.32;;
9420;SDS011;4749;51.398;5.466;2023-03-23T17:20:41;7.70;;;2.53;;
9420;SDS011;4749;51.398;5.466;2023-03-23T17:23:08;7.88;;;2.90;;
9420;SDS011;4749;51.398;5.466;2023-03-23T17:25:36;6.05;;;2.38;;
9420;SDS011;4749;51.398;5.466;2023-03-23T17:28:04;6.82;;;2.25;;
9420;SDS011;4749;51.398;5.466;2023-03-23T17:30:32;2.72;;;1.60;;
9420;SDS011;4749;51.398;5.466;2023-03-23T17:33:00;6.72;;;1.88;;
9420;SDS011;4749;51.398;5.466;2023-03-23T17:35:27;5.38;;;1.80;;
9420;SDS011;4749;51.398;5.466;2023-03-23T17:37:55;4.40;;;2.03;;
9420;SDS011;4749;51.398;5.466;2023-03-23T17:40:22;7.03;;;2.17;;
9420;SDS011;4749;51.398;5.466;2023-03-23T17:42:49;5.07;;;1.63;;
9420;SDS011;4749;51.398;5.466;2023-03-23T17:45:16;5.35;;;2.10;;
9420;SDS011;4749;51.398;5.466;2023-03-23T17:47:43;7.72;;;2.13;;
9420;SDS011;4749;51.398;5.466;2023-03-23T17:50:11;8.30;;;2.30;;
9420;SDS011;4749;51.398;5.466;2023-03-23T17:52:39;4.47;;;1.98;;
9420;SDS011;4749;51.398;5.466;2023-03-23T17:55:08;4.63;;;1.80;;
9420;SDS011;4749;51.398;5.466;2023-03-23T17:57:36;6.13;;;1.95;;
9420;SDS011;4749;51.398;5.466;2023-03-23T18:00:04;6.22;;;2.05;;
9420;SDS011;4749;51.398;5.466;2023-03-23T18:02:35;9.45;;;2.10;;
9420;SDS011;4749;51.398;5.466;2023-03-23T18:05:03;9.27;;;2.10;;
9420;SDS011;4749;51.398;5.466;2023-03-23T18:07:33;6.18;;;2.03;;
9420;SDS011;4749;51.398;5.466;2023-03-23T18:10:01;5.20;;;1.90;;
9420;SDS011;4749;51.398;5.466;2023-03-23T18:12:29;7.55;;;2.58;;
9420;SDS011;4749;51.398;5.466;2023-03-23T18:14:56;5.68;;;1.88;;
9420;SDS011;4749;51.398;5.466;2023-03-23T18:17:24;7.28;;;2.03;;